LXJ230 KOKC-KDAL
Flight info
| Callsign | LXJ230 |
|---|---|
| Flight time | N/A |
| Altitude | 29000 |
| Route | KRMSN4 KRMSN AIRRE HIBIL3 |
| Aircraft | C25C/M-BGS/L |
Departure
| Time | 2026-04-28 01:08 |
|---|---|
| Airport | OKC Will Rogers World Airport (KOKC) |
Arrival
| Time | N/A |
|---|---|
| Airport | Dallas Love Field (KDAL) |
| Time | Latitude | Longitude | Altitude | Speed | Heading |
|---|---|---|---|---|---|
| 2026-04-28 00:54 | 35.39656 | -97.58522 | 1285 ft | 0 kts | 41° |
| 2026-04-28 01:00 | 35.39646 | -97.58533 | 1285 ft | 3 kts | 41° |
| 2026-04-28 01:00 | 35.39635 | -97.58545 | 1286 ft | 0 kts | 41° |
| 2026-04-28 01:03 | 35.39646 | -97.58539 | 1284 ft | 6 kts | 9° |
| 2026-04-28 01:03 | 35.39681 | -97.58608 | 1285 ft | 15 kts | 313° |
| 2026-04-28 01:04 | 35.39710 | -97.58719 | 1288 ft | 15 kts | 223° |
| 2026-04-28 01:04 | 35.39608 | -97.58727 | 1287 ft | 15 kts | 180° |
| 2026-04-28 01:04 | 35.39505 | -97.58727 | 1287 ft | 16 kts | 180° |
| 2026-04-28 01:04 | 35.39389 | -97.58727 | 1287 ft | 17 kts | 180° |
| 2026-04-28 01:05 | 35.39267 | -97.58727 | 1290 ft | 17 kts | 180° |
| 2026-04-28 01:05 | 35.39150 | -97.58727 | 1292 ft | 17 kts | 181° |
| 2026-04-28 01:05 | 35.39026 | -97.58726 | 1292 ft | 19 kts | 179° |
| 2026-04-28 01:05 | 35.38891 | -97.58727 | 1292 ft | 20 kts | 180° |
| 2026-04-28 01:06 | 35.38747 | -97.58727 | 1292 ft | 21 kts | 181° |
| 2026-04-28 01:06 | 35.38587 | -97.58726 | 1287 ft | 25 kts | 180° |
| 2026-04-28 01:06 | 35.38409 | -97.58720 | 1285 ft | 26 kts | 168° |
| 2026-04-28 01:06 | 35.38246 | -97.58630 | 1283 ft | 26 kts | 169° |
| 2026-04-28 01:07 | 35.38064 | -97.58624 | 1282 ft | 26 kts | 179° |
| 2026-04-28 01:07 | 35.37934 | -97.58636 | 1282 ft | 17 kts | 199° |
| 2026-04-28 01:07 | 35.37850 | -97.58733 | 1286 ft | 17 kts | 243° |
| 2026-04-28 01:07 | 35.37837 | -97.58787 | 1284 ft | 0 kts | 264° |
| 2026-04-28 01:08 | 35.37849 | -97.58888 | 1286 ft | 18 kts | 331° |
| 2026-04-28 01:08 | 35.38174 | -97.58893 | 1283 ft | 99 kts | 2° |
| 2026-04-28 01:08 | 35.39119 | -97.58905 | 1725 ft | 157 kts | 0° |
| 2026-04-28 01:08 | 35.40234 | -97.58949 | 2500 ft | 161 kts | 358° |
| 2026-04-28 01:09 | 35.41350 | -97.58976 | 3246 ft | 162 kts | 7° |
| 2026-04-28 01:09 | 35.42483 | -97.58567 | 3735 ft | 179 kts | 17° |
| 2026-04-28 01:09 | 35.43731 | -97.58075 | 4082 ft | 196 kts | 15° |
| 2026-04-28 01:09 | 35.45060 | -97.57567 | 4546 ft | 200 kts | 16° |
| 2026-04-28 01:10 | 35.46328 | -97.56973 | 5315 ft | 195 kts | 26° |
| 2026-04-28 01:10 | 35.47482 | -97.55859 | 6043 ft | 219 kts | 51° |
| 2026-04-28 01:10 | 35.48107 | -97.54257 | 7347 ft | 214 kts | 84° |
| 2026-04-28 01:10 | 35.47853 | -97.52494 | 8338 ft | 211 kts | 124° |
| 2026-04-28 01:11 | 35.46931 | -97.51012 | 9101 ft | 228 kts | 148° |
| 2026-04-28 01:11 | 35.45586 | -97.49928 | 10054 ft | 237 kts | 158° |
| 2026-04-28 01:11 | 35.44087 | -97.48937 | 10924 ft | 251 kts | 160° |
| 2026-04-28 01:11 | 35.42545 | -97.47933 | 11956 ft | 257 kts | 160° |
| 2026-04-28 01:12 | 35.40923 | -97.46820 | 12897 ft | 269 kts | 158° |
| 2026-04-28 01:12 | 35.39280 | -97.45597 | 13729 ft | 285 kts | 158° |
| 2026-04-28 01:12 | 35.37508 | -97.44297 | 14242 ft | 306 kts | 158° |
| 2026-04-28 01:12 | 35.35675 | -97.43014 | 15146 ft | 311 kts | 159° |
| 2026-04-28 01:13 | 35.33719 | -97.41610 | 15256 ft | 321 kts | 156° |
| 2026-04-28 01:13 | 35.30316 | -97.38881 | 15187 ft | 264 kts | 157° |
| 2026-04-28 01:13 | 35.28812 | -97.37821 | 15120 ft | 231 kts | 166° |
| 2026-04-28 01:14 | 35.27465 | -97.37183 | 15151 ft | 175 kts | 179° |
| 2026-04-28 01:14 | 35.26460 | -97.37167 | 14386 ft | 94 kts | 132° |
| 2026-04-28 01:14 | 35.26240 | -97.37317 | 10915 ft | 104 kts | 257° |
| 2026-04-28 01:14 | 35.26001 | -97.38872 | 8420 ft | 195 kts | 256° |
| 2026-04-28 01:15 | 35.26018 | -97.40353 | 7620 ft | 160 kts | 275° |
| 2026-04-28 01:15 | 35.26363 | -97.41599 | 6555 ft | 149 kts | 280° |
| 2026-04-28 01:15 | 35.26240 | -97.42782 | 5232 ft | 150 kts | 271° |
| 2026-04-28 01:15 | 35.25925 | -97.44021 | 3930 ft | 154 kts | 288° |
| 2026-04-28 01:16 | 35.25762 | -97.45278 | 3034 ft | 142 kts | 308° |
| 2026-04-28 01:16 | 35.25535 | -97.45584 | 1827 ft | 248 kts | 191° |
| 2026-04-28 01:16 | 35.25019 | -97.45705 | 1798 ft | 243 kts | 190° |